Time;durP1;ratioP1;P1;durP2;ratioP2;P2;SDS_P1;SDS_P2;PMS_P1;PMS_P2;Temp;Humidity;BMP_temperature;BMP_pressure;BME280_temperature;BME280_humidity;BME280_pressure;Samples;Min_cycle;Max_cycle;Signal;HPM_P1;HPM_P2
2023/03/21 00:00:57;;;;;;;;;;;;;;;28.85;61.98;100910.47;5051928;28;69931;-38
2023/03/21 00:03:27;;;;;;;;;;;;;;;28.91;62.66;100915.03;5048417;28;66702;-38
2023/03/21 00:05:58;;;;;;;;;;;;;;;28.99;64.18;100921.28;5053957;28;70601;-36
2023/03/21 00:08:28;;;;;;;;;;;;;;;28.94;65.39;100925.41;5047155;28;66812;-37
2023/03/21 00:11:00;;;;;;;;;;;;;;;28.89;67.82;100925.22;5050406;28;69980;-36
2023/03/21 00:13:37;;;;;;;;;;;;;;;28.90;68.63;100929.56;5051743;28;66186;-37
2023/03/21 00:16:15;;;;;;;;;;;;;;;28.89;65.80;100940.56;5069033;27;70705;-37
2023/03/21 00:19:02;;;;;;;;;;;;;;;28.92;63.26;100954.50;5071835;27;66439;-37
2023/03/21 00:21:37;;;;;;;;;;;;;;;28.98;63.04;100957.44;5052943;28;69991;-38
2023/03/21 00:24:27;;;;;;;;;;;;;;;29.02;61.81;100953.28;5050943;28;66836;-38
2023/03/21 00:26:57;;;;;;;;;;;;;;;29.07;61.63;100954.34;5078698;27;70510;-38
2023/03/21 00:29:48;;;;;;;;;;;;;;;29.12;62.38;100951.03;5054574;28;66154;-38
2023/03/21 00:32:21;;;;;;;;;;;;;;;29.16;61.66;100961.19;5040441;28;70048;-38
2023/03/21 00:34:51;;;;;;;;;;;;;;;29.19;61.83;100965.34;5052368;27;66328;-37
2023/03/21 00:37:42;;;;;;;;;;;;;;;29.22;61.62;100964.94;5053767;28;70127;-37
2023/03/21 00:40:12;;;;;;;;;;;;;;;29.26;61.77;100960.81;5046902;28;67185;-41
2023/03/21 00:43:02;;;;;;;;;;;;;;;29.29;61.87;100960.38;5052936;28;69770;-37
2023/03/21 00:45:33;;;;;;;;;;;;;;;29.33;62.41;100963.50;5048458;28;66045;-37
2023/03/21 00:48:04;;;;;;;;;;;;;;;29.34;61.79;100963.31;5050600;28;70397;-38
2023/03/21 00:50:35;;;;;;;;;;;;;;;29.37;61.44;100967.47;5048840;28;65558;-38
2023/03/21 00:53:06;;;;;;;;;;;;;;;29.39;62.44;100960.81;5034471;28;70331;-35
2023/03/21 00:55:37;;;;;;;;;;;;;;;29.42;61.98;100974.91;5053618;28;66356;-41
2023/03/21 00:58:08;;;;;;;;;;;;;;;29.44;61.71;100970.97;5040887;28;70233;-39
2023/03/21 01:00:39;;;;;;;;;;;;;;;29.47;61.19;100977.84;5041726;28;66576;-40
2023/03/21 01:03:10;;;;;;;;;;;;;;;29.48;60.96;100969.53;5043911;28;69146;-40
2023/03/21 01:06:05;;;;;;;;;;;;;;;29.50;60.82;100986.34;5036518;28;65322;-40
2023/03/21 01:08:37;;;;;;;;;;;;;;;29.53;61.03;100995.91;5043176;28;70230;-38
2023/03/21 01:11:24;;;;;;;;;;;;;;;29.55;60.58;100991.13;5054902;28;66208;-40
2023/03/21 01:13:55;;;;;;;;;;;;;;;29.57;60.26;100989.06;5048941;28;69751;-39
2023/03/21 01:16:42;;;;;;;;;;;;;;;29.58;59.96;100990.72;5041978;28;66725;-41
2023/03/21 01:19:15;;;;;;;;;;;;;;;29.60;60.00;100988.66;5044933;28;70303;-41
2023/03/21 01:21:56;;;;;;;;;;;;;;;29.61;59.84;101007.38;5042886;28;66613;-40
2023/03/21 01:24:26;;;;;;;;;;;;;;;29.64;59.84;100998.03;5052110;28;70648;-40
2023/03/21 01:26:57;;;;;;;;;;;;;;;29.65;60.04;101002.41;5045712;28;66509;-39
2023/03/21 01:29:27;;;;;;;;;;;;;;;29.67;60.06;101004.88;5049145;27;70599;-40
2023/03/21 01:31:58;;;;;;;;;;;;;;;29.68;59.54;101004.69;5052357;28;65312;-41
2023/03/21 01:34:28;;;;;;;;;;;;;;;29.70;59.77;101010.72;5051182;28;69668;-39
2023/03/21 01:36:59;;;;;;;;;;;;;;;29.71;59.21;101006.97;5082737;27;65686;-42
2023/03/21 01:39:42;;;;;;;;;;;;;;;29.73;59.16;101015.72;5043213;28;70726;-39
2023/03/21 01:42:13;;;;;;;;;;;;;;;29.76;59.59;101018.00;5041502;28;66257;-40
2023/03/21 01:44:55;;;;;;;;;;;;;;;29.78;59.20;101026.72;5032257;28;69236;-40
2023/03/21 01:47:34;;;;;;;;;;;;;;;29.55;58.74;100985.72;5089042;27;66521;-43
2023/03/21 01:50:25;;;;;;;;;;;;;;;29.83;59.22;101024.22;5057373;28;69389;-39
2023/03/21 01:53:03;;;;;;;;;;;;;;;29.86;58.84;101024.84;5080035;27;66030;-40
2023/03/21 01:55:36;;;;;;;;;;;;;;;29.88;58.55;101025.47;5053625;28;69153;-39
2023/03/21 01:58:17;;;;;;;;;;;;;;;29.90;58.49;101026.09;5046719;28;66373;-40
2023/03/21 02:01:08;;;;;;;;;;;;;;;29.92;58.89;101016.72;5051629;28;70340;-39
2023/03/21 02:03:49;;;;;;;;;;;;;;;29.94;58.17;101017.34;5045890;28;66857;-41
2023/03/21 02:06:35;;;;;;;;;;;;;;;29.97;58.08;101022.31;5043952;28;69550;-40
2023/03/21 02:09:41;;;;;;;;;;;;;;;30.00;58.60;101021.88;5043342;28;66269;-39
2023/03/21 02:12:17;;;;;;;;;;;;;;;30.04;58.24;101027.72;5040866;28;69168;-40
2023/03/21 02:14:49;;;;;;;;;;;;;;;30.04;58.21;101020.44;5044321;28;66003;-41
2023/03/21 02:17:46;;;;;;;;;;;;;;;30.08;58.36;101017.31;5059502;27;69555;-41
2023/03/21 02:20:26;;;;;;;;;;;;;;;30.10;58.07;101010.66;5041409;28;66055;-40
2023/03/21 02:23:14;;;;;;;;;;;;;;;30.13;57.93;101004.81;5082241;27;68958;-41
2023/03/21 02:26:02;;;;;;;;;;;;;;;30.15;58.08;101000.03;5047831;28;67074;-40
2023/03/21 02:28:41;;;;;;;;;;;;;;;30.18;57.80;101002.31;5052023;28;69464;-40
2023/03/21 02:31:37;;;;;;;;;;;;;;;30.21;57.51;101001.88;5051314;27;66133;-41
2023/03/21 02:34:27;;;;;;;;;;;;;;;30.24;58.03;100993.38;5040125;28;70050;-40
2023/03/21 02:37:13;;;;;;;;;;;;;;;30.27;57.80;100995.63;5045756;28;67031;-40
2023/03/21 02:39:58;;;;;;;;;;;;;;;30.30;57.62;100998.97;5055135;28;69432;-39
2023/03/21 02:42:53;;;;;;;;;;;;;;;30.33;57.83;100995.84;5063406;27;65644;-40
2023/03/21 02:45:39;;;;;;;;;;;;;;;30.37;57.39;100991.63;5082999;27;69994;-40
2023/03/21 02:48:16;;;;;;;;;;;;;;;30.38;57.38;100990.63;5058617;27;68383;-41
2023/03/21 02:51:02;;;;;;;;;;;;;;;30.42;57.91;100997.25;5050931;28;70137;-42
2023/03/21 02:53:34;;;;;;;;;;;;;;;30.46;57.89;100998.50;5047023;28;65470;-39
2023/03/21 02:56:10;;;;;;;;;;;;;;;30.48;57.74;100991.00;5051433;27;67968;-39
2023/03/21 02:58:45;;;;;;;;;;;;;;;30.50;57.81;100999.72;5056132;28;66268;-40
2023/03/21 03:01:16;;;;;;;;;;;;;;;30.54;57.41;101000.13;5054571;28;70794;-40
2023/03/21 03:03:49;;;;;;;;;;;;;;;30.57;57.20;100997.00;5055929;28;65837;-43
2023/03/21 03:06:22;;;;;;;;;;;;;;;30.59;57.02;100987.59;5064312;27;68997;-39
2023/03/21 03:09:05;;;;;;;;;;;;;;;30.61;57.54;100985.50;5049672;27;65700;-41
2023/03/21 03:11:44;;;;;;;;;;;;;;;30.64;57.26;100978.81;5048602;28;69811;-41
2023/03/21 03:14:24;;;;;;;;;;;;;;;30.67;57.07;100976.53;5045498;28;66136;-43
2023/03/21 03:17:34;;;;;;;;;;;;;;;30.70;57.08;100967.97;5043121;28;69257;-41
2023/03/21 03:20:05;;;;;;;;;;;;;;;30.73;57.22;100977.53;5081485;27;66642;-41
2023/03/21 03:22:46;;;;;;;;;;;;;;;30.76;56.94;100971.69;5055278;27;69256;-40
2023/03/21 03:25:19;;;;;;;;;;;;;;;30.78;56.99;100968.75;5042099;28;67491;-41
2023/03/21 03:28:08;;;;;;;;;;;;;;;30.30;56.69;100890.72;5043162;27;69867;-38
2023/03/21 03:30:39;;;;;;;;;;;;;;;30.85;56.30;100966.88;5063335;28;66939;-42
2023/03/21 03:33:26;;;;;;;;;;;;;;;30.88;56.48;100953.72;5057384;27;69580;-41
2023/03/21 03:35:58;;;;;;;;;;;;;;;30.91;56.21;100957.88;5046654;28;66616;-42
2023/03/21 03:38:37;;;;;;;;;;;;;;;30.94;56.46;100954.72;5047783;28;70029;-41
2023/03/21 03:41:18;;;;;;;;;;;;;;;30.97;56.34;100956.97;5050542;28;66147;-40
2023/03/21 03:43:55;;;;;;;;;;;;;;;31.00;56.38;100939.47;5082882;27;70659;-39
2023/03/21 03:46:34;;;;;;;;;;;;;;;31.03;55.97;100947.16;5046681;27;66746;-41
2023/03/21 03:49:07;;;;;;;;;;;;;;;31.05;56.01;100943.16;5060208;27;69654;-42
2023/03/21 03:51:50;;;;;;;;;;;;;;;31.07;55.99;100941.09;5052456;28;66534;-42
2023/03/21 03:54:38;;;;;;;;;;;;;;;31.11;55.95;100936.88;5047336;27;70478;-44
2023/03/21 03:57:11;;;;;;;;;;;;;;;31.13;56.17;100928.53;5042272;28;65922;-40
2023/03/21 03:59:42;;;;;;;;;;;;;;;31.14;55.76;100922.88;5041597;28;69704;-40
2023/03/21 04:02:35;;;;;;;;;;;;;;;31.19;55.67;100924.09;5043805;27;64356;-41
2023/03/21 04:05:05;;;;;;;;;;;;;;;31.20;55.41;100918.44;5048115;28;69859;-40
2023/03/21 04:07:36;;;;;;;;;;;;;;;31.23;55.46;100917.19;5062130;27;66030;-40
2023/03/21 04:10:10;;;;;;;;;;;;;;;31.24;54.90;100911.56;5045582;27;71087;-41
2023/03/21 04:12:42;;;;;;;;;;;;;;;31.27;54.71;100913.00;5054474;28;65586;-40
2023/03/21 04:15:32;;;;;;;;;;;;;;;31.29;55.12;100905.47;5041067;28;69854;-43
2023/03/21 04:18:10;;;;;;;;;;;;;;;31.31;54.73;100903.34;5051877;28;66943;-40
2023/03/21 04:20:43;;;;;;;;;;;;;;;31.33;54.68;100895.84;5034142;28;69917;-41
2023/03/21 04:23:15;;;;;;;;;;;;;;;31.35;54.54;100893.72;5050191;28;66644;-39
2023/03/21 04:25:47;;;;;;;;;;;;;;;31.37;54.54;100880.78;5079003;27;70829;-40
2023/03/21 04:28:41;;;;;;;;;;;;;;;31.39;54.46;100889.53;5052235;28;65632;-41
2023/03/21 04:31:25;;;;;;;;;;;;;;;31.41;54.73;100881.19;5041156;27;69659;-39
2023/03/21 04:34:11;;;;;;;;;;;;;;;31.41;54.61;100876.59;5044786;28;66478;-39
2023/03/21 04:36:49;;;;;;;;;;;;;;;31.42;54.55;100867.41;5050867;28;70884;-39
2023/03/21 04:39:20;;;;;;;;;;;;;;;31.45;54.67;100866.94;5053689;27;64849;-40
2023/03/21 04:41:51;;;;;;;;;;;;;;;31.46;54.57;100857.78;5046153;28;69606;-40
2023/03/21 04:44:22;;;;;;;;;;;;;;;31.47;54.48;100864.84;5043317;27;69409;-40
2023/03/21 04:46:52;;;;;;;;;;;;;;;31.51;54.26;100859.81;5052454;28;69418;-40
2023/03/21 04:49:22;;;;;;;;;;;;;;;31.53;54.57;100849.56;5047694;28;66670;-40
2023/03/21 04:51:52;;;;;;;;;;;;;;;31.56;54.38;100847.22;5053818;28;69184;-40
2023/03/21 04:54:23;;;;;;;;;;;;;;;31.57;54.31;100839.94;5039469;28;66688;-40
2023/03/21 04:56:54;;;;;;;;;;;;;;;31.61;54.34;100841.13;5051995;27;69700;-41
2023/03/21 04:59:27;;;;;;;;;;;;;;;31.64;54.27;100829.00;5045061;28;65916;-40
2023/03/21 05:01:58;;;;;;;;;;;;;;;31.65;54.08;100828.81;5062384;27;69137;-40
2023/03/21 05:04:31;;;;;;;;;;;;;;;31.67;53.93;100826.66;5049192;27;66027;-41
2023/03/21 05:07:01;;;;;;;;;;;;;;;31.70;54.23;100825.38;5044514;28;70544;-40
2023/03/21 05:09:32;;;;;;;;;;;;;;;31.71;54.22;100827.88;5057300;28;66455;-40
2023/03/21 05:12:04;;;;;;;;;;;;;;;31.76;54.13;100827.19;5046915;28;69282;-42
2023/03/21 05:14:35;;;;;;;;;;;;;;;31.77;54.16;100816.13;5060318;28;66816;-41
2023/03/21 05:17:06;;;;;;;;;;;;;;;31.80;53.85;100809.41;5053985;28;69991;-41
2023/03/21 05:19:39;;;;;;;;;;;;;;;31.83;53.77;100798.94;5057422;28;65989;-41
2023/03/21 05:22:10;;;;;;;;;;;;;;;31.85;54.01;100793.28;5048537;28;70809;-40
2023/03/21 05:24:42;;;;;;;;;;;;;;;31.88;54.21;100800.97;5049795;28;66910;-41
2023/03/21 05:27:33;;;;;;;;;;;;;;;31.90;53.63;100793.44;5050623;28;70333;-42
2023/03/21 05:30:14;;;;;;;;;;;;;;;31.93;54.00;100793.00;5056390;28;65677;-43
2023/03/21 05:32:47;;;;;;;;;;;;;;;31.95;53.77;100788.16;5076008;27;70194;-41
2023/03/21 05:35:19;;;;;;;;;;;;;;;31.98;53.54;100776.88;5065776;27;66843;-42
2023/03/21 05:37:50;;;;;;;;;;;;;;;32.01;53.84;100783.69;5050896;28;70872;-42
2023/03/21 05:40:23;;;;;;;;;;;;;;;32.03;53.61;100776.97;5066057;27;66477;-43
2023/03/21 05:42:56;;;;;;;;;;;;;;;32.05;53.66;100780.28;5043022;28;69520;-40
2023/03/21 05:45:27;;;;;;;;;;;;;;;32.10;53.63;100773.38;5045984;28;66565;-42
2023/03/21 05:47:57;;;;;;;;;;;;;;;32.11;53.33;100767.69;5075939;28;70096;-42
2023/03/21 05:50:32;;;;;;;;;;;;;;;32.15;53.55;100765.31;5084292;27;66969;-43
2023/03/21 05:53:14;;;;;;;;;;;;;;;32.18;53.33;100756.72;5058188;28;70402;-42
2023/03/21 05:55:45;;;;;;;;;;;;;;;32.20;53.50;100755.44;5048295;28;66140;-44
2023/03/21 05:58:30;;;;;;;;;;;;;;;32.22;53.33;100747.06;5026542;28;69314;-42
2023/03/21 06:01:01;;;;;;;;;;;;;;;32.25;53.14;100752.03;5085712;27;66801;-43
2023/03/21 06:03:34;;;;;;;;;;;;;;;32.28;53.03;100752.38;5060362;27;70949;-42
2023/03/21 06:06:15;;;;;;;;;;;;;;;32.32;52.95;100733.75;5051625;28;66680;-39
2023/03/21 06:09:02;;;;;;;;;;;;;;;32.35;53.04;100738.72;5049763;28;70370;-41
2023/03/21 06:11:35;;;;;;;;;;;;;;;32.37;53.00;100728.44;5049002;27;66949;-41
2023/03/21 06:14:32;;;;;;;;;;;;;;;32.40;52.92;100717.13;5044739;28;70039;-41
2023/03/21 06:17:28;;;;;;;;;;;;;;;32.44;53.07;100718.31;5043334;28;66942;-41
2023/03/21 06:20:05;;;;;;;;;;;;;;;32.47;52.83;100707.00;5056687;28;69987;-40
2023/03/21 06:22:44;;;;;;;;;;;;;;;32.51;52.90;100701.09;5048008;28;66006;-40
2023/03/21 06:25:15;;;;;;;;;;;;;;;32.54;52.79;100695.19;5040014;28;69861;-41
2023/03/21 06:27:45;;;;;;;;;;;;;;;32.58;52.69;100685.53;5050907;28;66514;-40
2023/03/21 06:30:17;;;;;;;;;;;;;;;32.60;52.56;100677.97;5055138;27;69914;-41
2023/03/21 06:33:11;;;;;;;;;;;;;;;32.64;52.61;100676.44;5061836;27;66964;-41
2023/03/21 06:35:41;;;;;;;;;;;;;;;32.69;52.54;100676.53;5048180;28;70089;-40
2023/03/21 06:38:11;;;;;;;;;;;;;;;32.70;52.58;100672.75;5054198;28;66507;-45
2023/03/21 06:40:42;;;;;;;;;;;;;;;32.76;52.42;100673.69;5067197;27;70073;-41
2023/03/21 06:43:12;;;;;;;;;;;;;;;32.79;52.36;100670.50;5050557;28;66400;-42
2023/03/21 06:45:44;;;;;;;;;;;;;;;32.83;52.42;100658.09;5047348;28;69498;-43
2023/03/21 06:48:15;;;;;;;;;;;;;;;32.85;52.31;100659.53;5049677;28;66867;-41
2023/03/21 06:50:50;;;;;;;;;;;;;;;32.90;52.03;100659.63;5047121;28;70476;-41
2023/03/21 06:53:26;;;;;;;;;;;;;;;32.96;52.04;100654.28;5051473;27;67025;-41
2023/03/21 06:56:16;;;;;;;;;;;;;;;33.00;51.98;100644.63;5049264;28;70031;-46
2023/03/21 06:58:47;;;;;;;;;;;;;;;33.03;51.66;100639.53;5056314;28;66631;-40
2023/03/21 07:01:44;;;;;;;;;;;;;;;33.07;52.15;100642.59;5050936;28;70461;-42
2023/03/21 07:04:15;;;;;;;;;;;;;;;33.11;51.89;100651.91;5045281;27;66663;-41
2023/03/21 07:06:45;;;;;;;;;;;;;;;33.13;51.98;100641.66;5063498;27;70040;-42
2023/03/21 07:09:17;;;;;;;;;;;;;;;33.18;51.93;100646.34;5036061;28;66258;-42
2023/03/21 07:11:49;;;;;;;;;;;;;;;33.21;51.71;100641.25;5046629;28;68920;-43
2023/03/21 07:14:20;;;;;;;;;;;;;;;33.25;51.81;100626.09;5088052;27;65532;-40
2023/03/21 07:16:51;;;;;;;;;;;;;;;33.29;51.55;100627.28;5047115;28;70113;-45
2023/03/21 07:19:21;;;;;;;;;;;;;;;33.35;51.67;100630.94;5050112;28;66051;-41
2023/03/21 07:21:51;;;;;;;;;;;;;;;33.41;51.67;100627.22;5051590;28;70752;-40
2023/03/21 07:24:22;;;;;;;;;;;;;;;33.46;51.40;100621.03;5055518;28;65986;-40
2023/03/21 07:26:53;;;;;;;;;;;;;;;33.51;51.14;100618.41;5076249;27;69155;-39
2023/03/21 07:29:24;;;;;;;;;;;;;;;33.54;51.22;100616.09;5051405;28;66306;-40
2023/03/21 07:31:54;;;;;;;;;;;;;;;33.59;51.15;100621.59;5046500;28;70761;-40
2023/03/21 07:34:26;;;;;;;;;;;;;;;33.63;50.96;100608.34;5043645;28;65495;-42
2023/03/21 07:36:56;;;;;;;;;;;;;;;33.67;50.77;100623.09;5048109;28;70792;-40
2023/03/21 07:39:27;;;;;;;;;;;;;;;33.71;50.86;100613.38;5050617;28;65971;-41
2023/03/21 07:41:57;;;;;;;;;;;;;;;33.75;50.92;100614.53;5041236;28;70495;-42
2023/03/21 07:44:39;;;;;;;;;;;;;;;33.82;50.46;100606.19;5073145;27;66929;-41
2023/03/21 07:47:09;;;;;;;;;;;;;;;33.87;50.24;100600.03;5038479;28;70128;-41
2023/03/21 07:49:40;;;;;;;;;;;;;;;33.92;50.50;100608.25;5046265;27;67098;-42
2023/03/21 07:52:10;;;;;;;;;;;;;;;33.97;50.09;100605.63;5047801;27;71157;-41
2023/03/21 07:54:40;;;;;;;;;;;;;;;34.01;50.34;100606.78;5040127;28;65994;-41
2023/03/21 07:57:11;;;;;;;;;;;;;;;34.08;50.12;100612.91;5043874;27;69492;-42
2023/03/21 07:59:41;;;;;;;;;;;;;;;34.12;49.95;100605.06;5079623;27;66835;-43
2023/03/21 08:02:15;;;;;;;;;;;;;;;34.17;49.71;100605.97;5043022;28;69951;-43
2023/03/21 08:04:45;;;;;;;;;;;;;;;34.21;49.83;100601.69;5048355;28;66456;-41
2023/03/21 08:07:16;;;;;;;;;;;;;;;34.28;49.33;100590.59;5048539;27;70260;-41
2023/03/21 08:09:46;;;;;;;;;;;;;;;34.32;49.58;100591.75;5048786;28;66899;-40
2023/03/21 08:12:16;;;;;;;;;;;;;;;34.38;49.17;100589.91;5046943;28;69402;-41
2023/03/21 08:14:50;;;;;;;;;;;;;;;34.42;49.10;100591.88;5043782;28;66936;-41
2023/03/21 08:17:20;;;;;;;;;;;;;;;34.47;48.76;100589.25;5049364;28;70336;-41
2023/03/21 08:19:51;;;;;;;;;;;;;;;34.53;48.74;100590.13;5048956;28;65990;-40
2023/03/21 08:22:21;;;;;;;;;;;;;;;34.58;48.35;100587.50;5066053;27;70194;-40
2023/03/21 08:24:51;;;;;;;;;;;;;;;34.64;48.68;100589.22;5043931;28;67431;-41
2023/03/21 08:27:22;;;;;;;;;;;;;;;34.69;48.38;100591.19;5083703;27;68791;-40
2023/03/21 08:29:52;;;;;;;;;;;;;;;34.75;48.51;100583.91;5048130;28;66891;-42
2023/03/21 08:32:28;;;;;;;;;;;;;;;34.78;48.52;100584.22;5047777;28;70077;-40
2023/03/21 08:34:59;;;;;;;;;;;;;;;34.84;48.30;100582.38;5049099;28;65984;-41
2023/03/21 08:37:30;;;;;;;;;;;;;;;34.88;48.33;100583.50;5040687;28;70895;-40
2023/03/21 08:40:00;;;;;;;;;;;;;;;34.93;48.26;100575.38;5044914;28;66631;-40
2023/03/21 08:42:31;;;;;;;;;;;;;;;34.97;48.08;100579.25;5073692;27;69201;-40
2023/03/21 08:45:01;;;;;;;;;;;;;;;35.01;47.48;100582.28;5041344;27;66121;-43
2023/03/21 08:47:32;;;;;;;;;;;;;;;35.05;47.97;100580.69;5039050;28;70120;-40
2023/03/21 08:50:05;;;;;;;;;;;;;;;35.09;47.43;100579.97;5040525;27;67037;-41
2023/03/21 08:52:36;;;;;;;;;;;;;;;35.13;47.83;100578.38;4929125;28;3305393;-41
2023/03/21 08:55:06;;;;;;;;;;;;;;;35.19;47.18;100581.13;5050881;27;66741;-41
2023/03/21 08:57:37;;;;;;;;;;;;;;;35.24;47.32;100582.00;5054385;28;70591;-40
2023/03/21 09:00:13;;;;;;;;;;;;;;;35.26;47.50;100579.84;5050889;28;66912;-44
2023/03/21 09:02:45;;;;;;;;;;;;;;;35.31;47.09;100577.19;5078143;27;69566;-40
2023/03/21 09:05:16;;;;;;;;;;;;;;;35.35;47.55;100578.31;5039109;28;66945;-41
2023/03/21 09:07:48;;;;;;;;;;;;;;;34.84;47.15;100490.53;5042662;28;69977;-42
2023/03/21 09:10:20;;;;;;;;;;;;;;;35.47;46.95;100585.53;5050070;27;66699;-41
2023/03/21 09:12:52;;;;;;;;;;;;;;;35.51;46.78;100576.53;5044555;28;70289;-42
2023/03/21 09:15:23;;;;;;;;;;;;;;;35.55;46.62;100583.13;5042232;27;66255;-42
2023/03/21 09:17:57;;;;;;;;;;;;;;;35.26;48.33;100573.59;5039418;28;70489;-43
2023/03/21 09:20:31;;;;;;;;;;;;;;;34.98;48.78;100567.25;5046921;28;65621;-42
2023/03/21 09:23:02;;;;;;;;;;;;;;;34.83;49.37;100576.09;5045716;28;70276;-43
2023/03/21 09:25:32;;;;;;;;;;;;;;;34.71;50.39;100567.22;5052271;28;66819;-41
2023/03/21 09:28:04;;;;;;;;;;;;;;;34.66;50.55;100576.19;5050998;28;69772;-40
2023/03/21 09:30:35;;;;;;;;;;;;;;;34.58;51.32;100573.91;5049956;28;66505;-40
2023/03/21 09:33:07;;;;;;;;;;;;;;;34.56;51.78;100567.88;5050295;28;69410;-41
2023/03/21 09:35:37;;;;;;;;;;;;;;;34.51;51.62;100575.94;5042904;28;66775;-41
2023/03/21 09:38:08;;;;;;;;;;;;;;;34.49;52.26;100575.34;5041774;28;70782;-41
2023/03/21 09:40:39;;;;;;;;;;;;;;;34.44;52.48;100583.47;5040915;28;66157;-41
2023/03/21 09:43:10;;;;;;;;;;;;;;;34.43;52.58;100576.38;5039715;28;69705;-40
2023/03/21 09:45:49;;;;;;;;;;;;;;;34.42;52.46;100585.63;5042716;27;66616;-41
2023/03/21 09:48:29;;;;;;;;;;;;;;;34.38;53.16;100584.47;5043328;28;69922;-40
2023/03/21 09:51:01;;;;;;;;;;;;;;;34.34;53.14;100577.88;5043164;28;66999;-41
2023/03/21 09:53:34;;;;;;;;;;;;;;;34.36;53.44;100573.03;5044789;28;70435;-45
2023/03/21 09:56:05;;;;;;;;;;;;;;;34.36;53.23;100576.56;5044641;28;66186;-41
2023/03/21 09:58:39;;;;;;;;;;;;;;;34.14;53.57;100546.59;5047083;28;71059;-42
2023/03/21 10:01:27;;;;;;;;;;;;;;;34.33;53.29;100574.34;5049416;28;67037;-41
2023/03/21 10:04:00;;;;;;;;;;;;;;;34.36;53.58;100579.28;5046590;28;69821;-43
2023/03/21 10:06:32;;;;;;;;;;;;;;;34.28;53.78;100585.16;5052038;28;66853;-41
2023/03/21 10:09:08;;;;;;;;;;;;;;;34.18;54.00;100599.44;5047757;28;70765;-43
2023/03/21 10:11:59;;;;;;;;;;;;;;;34.15;53.88;100591.78;5045511;28;67143;-45
2023/03/21 10:14:30;;;;;;;;;;;;;;;34.05;54.17;100607.97;5045417;27;70595;-42
2023/03/21 10:17:20;;;;;;;;;;;;;;;34.00;54.08;100605.13;5047329;28;66941;-41
2023/03/21 10:19:58;;;;;;;;;;;;;;;33.95;54.67;100610.50;5042476;28;70860;-41
2023/03/21 10:22:29;;;;;;;;;;;;;;;33.89;55.26;100622.38;5049852;28;64949;-40
2023/03/21 10:24:59;;;;;;;;;;;;;;;33.88;55.42;100623.41;5046976;27;71427;-43
2023/03/21 10:27:30;;;;;;;;;;;;;;;33.81;55.44;100635.28;5043551;28;66572;-40
2023/03/21 10:30:01;;;;;;;;;;;;;;;33.75;56.36;100625.41;5047160;28;70639;-41
2023/03/21 10:32:31;;;;;;;;;;;;;;;33.71;56.28;100618.81;5051557;27;66634;-41
2023/03/21 10:35:03;;;;;;;;;;;;;;;33.68;56.48;100619.28;5049789;28;70302;-43
2023/03/21 10:37:35;;;;;;;;;;;;;;;33.74;56.74;100618.31;5041227;28;66608;-41
2023/03/21 10:40:08;;;;;;;;;;;;;;;33.69;57.55;100622.84;5040072;27;69413;-39
2023/03/21 10:42:39;;;;;;;;;;;;;;;33.68;57.53;100630.16;5041473;28;66293;-40
2023/03/21 10:45:17;;;;;;;;;;;;;;;33.68;57.37;100635.59;5048704;28;70075;-41
2023/03/21 10:47:49;;;;;;;;;;;;;;;33.68;57.66;100630.16;5042083;27;66261;-42
2023/03/21 10:50:24;;;;;;;;;;;;;;;33.68;57.67;100629.34;5045247;28;69913;-43
2023/03/21 10:52:59;;;;;;;;;;;;;;;33.69;57.59;100626.41;5042724;27;66711;-43
2023/03/21 10:55:30;;;;;;;;;;;;;;;33.67;58.56;100633.16;5042447;28;70219;-38
2023/03/21 10:58:02;;;;;;;;;;;;;;;33.76;58.12;100635.22;5042546;28;66195;-42
2023/03/21 11:00:43;;;;;;;;;;;;;;;34.02;57.16;100641.09;5046726;28;70531;-42
2023/03/21 11:03:27;;;;;;;;;;;;;;;34.17;56.37;100644.06;5050112;28;65388;-41
2023/03/21 11:06:03;;;;;;;;;;;;;;;34.28;55.94;100644.25;5054838;28;70258;-42
2023/03/21 11:08:59;;;;;;;;;;;;;;;34.35;55.24;100653.03;5040485;28;66949;-43
2023/03/21 11:11:36;;;;;;;;;;;;;;;34.41;54.90;100649.34;5050031;28;70295;-42
2023/03/21 11:14:08;;;;;;;;;;;;;;;34.43;55.02;100652.63;5041712;28;66674;-41
2023/03/21 11:16:40;;;;;;;;;;;;;;;34.46;54.81;100650.25;5043351;28;70515;-41
2023/03/21 11:19:15;;;;;;;;;;;;;;;34.49;54.71;100657.06;5036891;28;67702;-43
2023/03/21 11:21:46;;;;;;;;;;;;;;;34.47;54.37;100653.78;5049308;27;69833;-41
2023/03/21 11:24:17;;;;;;;;;;;;;;;34.47;54.28;100643.72;5028725;28;66295;-42
2023/03/21 11:26:50;;;;;;;;;;;;;;;34.49;54.18;100659.78;5043620;28;70253;-43
2023/03/21 11:29:25;;;;;;;;;;;;;;;34.48;54.17;100660.88;5046610;28;66463;-41
2023/03/21 11:32:09;;;;;;;;;;;;;;;34.47;54.65;100675.56;5049036;28;69329;-42
2023/03/21 11:34:52;;;;;;;;;;;;;;;34.44;54.66;100666.00;5051169;27;65433;-41
2023/03/21 11:37:25;;;;;;;;;;;;;;;34.41;54.30;100671.94;5048526;28;70255;-43
2023/03/21 11:40:04;;;;;;;;;;;;;;;34.39;54.11;100678.72;5055091;28;66630;-43
2023/03/21 11:42:41;;;;;;;;;;;;;;;34.39;54.35;100684.16;5051646;28;69929;-43
2023/03/21 11:45:20;;;;;;;;;;;;;;;34.36;54.22;100687.38;5082442;27;66511;-42
2023/03/21 11:47:52;;;;;;;;;;;;;;;34.31;54.57;100687.31;5039161;28;69343;-43
2023/03/21 11:50:44;;;;;;;;;;;;;;;34.29;54.49;100689.44;5053214;28;66903;-42
2023/03/21 11:53:29;;;;;;;;;;;;;;;34.26;54.55;100699.75;5039595;28;69795;-45
2023/03/21 11:55:59;;;;;;;;;;;;;;;34.22;54.52;100701.34;5054821;27;65918;-43
2023/03/21 11:58:47;;;;;;;;;;;;;;;34.21;54.75;100710.59;5043775;28;70494;-43
2023/03/21 12:01:18;;;;;;;;;;;;;;;34.18;54.55;100721.94;5045266;28;65999;-41
2023/03/21 12:03:57;;;;;;;;;;;;;;;34.16;55.16;100720.56;5047289;28;69413;-42
2023/03/21 12:06:31;;;;;;;;;;;;;;;34.13;54.77;100727.31;5044171;28;65707;-42
2023/03/21 12:09:10;;;;;;;;;;;;;;;34.11;55.25;100740.34;5053392;28;69586;-43
2023/03/21 12:11:40;;;;;;;;;;;;;;;34.05;55.08;100738.59;5053334;27;66856;-43
2023/03/21 12:14:29;;;;;;;;;;;;;;;34.05;55.01;100735.06;5046516;28;69927;-43
2023/03/21 12:17:02;;;;;;;;;;;;;;;34.01;55.61;100738.22;5044908;28;66936;-43
2023/03/21 12:19:58;;;;;;;;;;;;;;;33.98;55.72;100737.91;5046814;28;69529;-43
2023/03/21 12:22:38;;;;;;;;;;;;;;;33.94;55.61;100737.56;5051274;28;66412;-43
2023/03/21 12:25:18;;;;;;;;;;;;;;;33.91;55.96;100748.94;5043996;28;70621;-45
2023/03/21 12:28:12;;;;;;;;;;;;;;;33.89;55.93;100750.25;5047509;28;65600;-42
2023/03/21 12:31:00;;;;;;;;;;;;;;;33.87;55.85;100757.81;5055009;28;69946;-43
2023/03/21 12:33:47;;;;;;;;;;;;;;;33.81;56.06;100755.00;5042415;28;66649;-44
2023/03/21 12:36:32;;;;;;;;;;;;;;;33.78;56.53;100771.81;5044852;28;70943;-41
2023/03/21 12:39:21;;;;;;;;;;;;;;;33.75;56.49;100772.31;5054158;28;65559;-44
2023/03/21 12:41:59;;;;;;;;;;;;;;;33.73;56.88;100769.00;5050466;28;69877;-43
2023/03/21 12:44:33;;;;;;;;;;;;;;;33.71;57.33;100767.59;5039686;28;66572;-44
2023/03/21 12:47:12;;;;;;;;;;;;;;;33.66;57.56;100771.06;5045755;28;70173;-41
2023/03/21 12:49:48;;;;;;;;;;;;;;;33.66;57.61;100781.94;5052161;28;65948;-42
2023/03/21 12:52:35;;;;;;;;;;;;;;;33.66;57.53;100787.38;5047122;27;70085;-44
2023/03/21 12:55:05;;;;;;;;;;;;;;;33.66;57.42;100795.53;5044068;27;65711;-41
2023/03/21 12:57:39;;;;;;;;;;;;;;;33.63;57.74;100804.19;5040622;28;70336;-43
2023/03/21 13:00:24;;;;;;;;;;;;;;;33.61;57.97;100809.03;5040855;28;67336;-42
2023/03/21 13:03:01;;;;;;;;;;;;;;;33.59;58.08;100816.59;5046483;28;70141;-41
2023/03/21 13:05:38;;;;;;;;;;;;;;;33.60;58.64;100812.81;5047132;27;66053;-42
2023/03/21 13:08:34;;;;;;;;;;;;;;;33.46;59.88;100824.97;5048437;28;69067;-40
2023/03/21 13:11:06;;;;;;;;;;;;;;;33.24;62.23;100824.78;5042978;28;65948;-42
2023/03/21 13:13:43;;;;;;;;;;;;;;;33.11;62.83;100832.13;5048679;27;70429;-42
2023/03/21 13:16:32;;;;;;;;;;;;;;;33.04;63.19;100833.28;5084461;27;65189;-44
2023/03/21 13:19:18;;;;;;;;;;;;;;;32.73;60.80;100832.53;5051241;28;70053;-43
2023/03/21 13:21:48;;;;;;;;;;;;;;;32.45;59.21;100827.72;5051556;28;66417;-42